This is the latest recevied weather packets stored in our database for station/object W8CWV-13. If no packets are shown the sender has not sent any weather packets the latest 1 day(s).
| Time | Temp. | Humidity | Pressure | Rain* | Wind** | Luminosity | Snow |
|---|---|---|---|---|---|---|---|
| 1778080348 | 20.56° C | 100% | 1013.4 hPa | - | - | - | - |
| 1778079776 | 20.56° C | 100% | 1014.9 hPa | - | - | - | - |
| 1778076903 | 17.22° C | 100% | 1021.6 hPa | - | - | - | - |
| 1778075755 | 16.67° C | 100% | 1021.4 hPa | - | - | - | - |
| 1778075178 | 16.11° C | 100% | 1021 hPa | - | - | - | - |
| 1778074608 | 16.11° C | 100% | 1020.3 hPa | - | - | - | - |
| 1778072891 | 16.11° C | 100% | 1018.7 hPa | - | - | - | - |
| 1778071174 | 16.11° C | 100% | 1017.8 hPa | - | - | - | - |
| 1778068875 | 16.11° C | 100% | 1016.3 hPa | - | - | - | - |
| 1778066017 | 16.11° C | 100% | 1016 hPa | - | - | - | - |
| 1778064291 | 16.11° C | 100% | 1015.2 hPa | - | - | - | - |
| 1778063146 | 16.67° C | 100% | 1014.4 hPa | - | - | - | - |
| 1778062573 | 16.67° C | 100% | 1014.2 hPa | - | - | - | - |
| 1778062001 | 16.67° C | 100% | 1013.9 hPa | - | - | - | - |
| 1778061429 | 16.67° C | 100% | 1013.9 hPa | - | - | - | - |
| 1778059711 | 17.22° C | 100% | 1014.4 hPa | - | - | - | - |
| 1778059138 | 17.22° C | 100% | 1014.5 hPa | - | - | - | - |
| 1778058565 | 17.22° C | 100% | 1014.7 hPa | - | - | - | - |
| 1778057993 | 17.22° C | 100% | 1014.8 hPa | - | - | - | - |
| 1778057418 | 17.22° C | 100% | 1014.8 hPa | - | - | - | - |
| 1778056846 | 17.78° C | 100% | 1015 hPa | - | - | - | - |
| 1778056274 | 17.78° C | 100% | 1015 hPa | - | - | - | - |
| 1778055696 | 17.78° C | 100% | 1015.1 hPa | - | - | - | - |
| 1778055125 | 17.78° C | 100% | 1015.1 hPa | - | - | - | - |
| 1778054552 | 17.78° C | 100% | 1015.2 hPa | - | - | - | - |
* Rain since midnight (hover to see other rain measurements)
** Current wind speed in m/s (hover to see current wind gust speed)